createdAt,value
2022-11-28T00:01:23.818Z,2.43
2022-11-28T00:03:51.535Z,2.46
2022-11-28T00:06:19.600Z,2.48
2022-11-28T00:08:47.554Z,2.50
2022-11-28T00:11:16.439Z,2.52
2022-11-28T00:13:45.154Z,2.53
2022-11-28T00:16:21.356Z,2.54
2022-11-28T00:18:50.306Z,2.54
2022-11-28T00:21:18.454Z,2.53
2022-11-28T00:23:47.527Z,2.52
2022-11-28T00:26:15.125Z,2.51
2022-11-28T00:28:43.168Z,2.48
2022-11-28T00:31:19.350Z,2.45
2022-11-28T00:33:47.364Z,2.43
2022-11-28T00:36:15.828Z,2.41
2022-11-28T00:38:43.743Z,2.39
2022-11-28T00:41:14.041Z,2.36
2022-11-28T00:43:42.623Z,2.34
2022-11-28T00:46:11.051Z,2.30
2022-11-28T00:48:38.910Z,2.26
2022-11-28T00:51:19.559Z,2.24
2022-11-28T00:53:48.834Z,2.20
2022-11-28T00:56:19.456Z,2.16
2022-11-28T00:58:49.652Z,2.12
2022-11-28T01:01:18.963Z,2.08
2022-11-28T01:03:48.300Z,2.04
2022-11-28T01:06:25.049Z,2.00
2022-11-28T01:08:52.928Z,1.94
2022-11-28T01:11:21.569Z,1.89
2022-11-28T01:13:49.721Z,1.86
2022-11-28T01:16:17.603Z,1.82
2022-11-28T01:18:45.427Z,1.78
2022-11-28T01:21:13.114Z,1.76
2022-11-28T01:23:40.727Z,1.72
2022-11-28T01:26:09.556Z,1.69
2022-11-28T01:28:37.173Z,1.66
2022-11-28T01:31:06.548Z,1.63
2022-11-28T01:33:34.361Z,1.61
2022-11-28T01:36:02.359Z,1.56
2022-11-28T01:38:30.207Z,1.56
2022-11-28T01:40:58.185Z,1.53
2022-11-28T01:43:25.944Z,1.50
2022-11-28T01:45:54.154Z,1.49
2022-11-28T01:48:27.849Z,1.49
2022-11-28T01:51:00.437Z,1.50
2022-11-28T01:53:33.521Z,1.51
2022-11-28T01:56:06.135Z,1.52
2022-11-28T01:58:35.207Z,1.54
2022-11-28T02:01:04.177Z,1.56
2022-11-28T02:03:38.529Z,1.57
2022-11-28T02:06:06.349Z,1.58
2022-11-28T02:08:35.419Z,1.59
2022-11-28T02:11:12.103Z,1.60
2022-11-28T02:13:44.579Z,1.61
2022-11-28T02:16:30.583Z,1.63
2022-11-28T02:19:11.137Z,1.62
2022-11-28T02:21:46.599Z,1.62
2022-11-28T02:24:33.268Z,1.63
2022-11-28T02:27:19.641Z,1.63
2022-11-28T02:30:07.099Z,1.62
2022-11-28T02:32:55.482Z,1.62
2022-11-28T02:35:29.312Z,1.62
2022-11-28T02:38:09.506Z,1.62
2022-11-28T02:40:49.206Z,1.62
2022-11-28T02:43:48.111Z,1.64
2022-11-28T02:46:40.869Z,1.62
2022-11-28T02:49:13.560Z,1.61
2022-11-28T02:51:56.800Z,1.61
2022-11-28T02:54:25.041Z,1.61
2022-11-28T02:56:54.028Z,1.62
2022-11-28T02:59:37.110Z,1.62
2022-11-28T03:02:28.993Z,1.61
2022-11-28T03:05:08.879Z,1.60
2022-11-28T03:08:01.488Z,1.57
2022-11-28T03:10:38.046Z,1.53
2022-11-28T03:13:30.558Z,1.49
2022-11-28T03:16:24.914Z,1.45
2022-11-28T03:18:55.285Z,1.38
2022-11-28T03:21:30.629Z,1.29
2022-11-28T03:24:01.452Z,1.21
2022-11-28T03:26:55.412Z,1.14
2022-11-28T03:29:34.465Z,1.01
2022-11-28T03:32:07.847Z,0.97
2022-11-28T03:34:38.781Z,0.92
2022-11-28T03:37:23.907Z,0.88
2022-11-28T03:39:59.148Z,0.85
2022-11-28T03:42:30.061Z,0.84
2022-11-28T03:45:03.988Z,0.82
2022-11-28T03:47:35.405Z,0.82
2022-11-28T03:50:07.027Z,0.82
2022-11-28T03:52:45.755Z,0.83
2022-11-28T03:55:18.769Z,0.86
2022-11-28T03:57:57.217Z,0.91
2022-11-28T04:00:25.184Z,0.95
2022-11-28T04:03:02.913Z,1.01
2022-11-28T04:05:48.839Z,1.06
2022-11-28T04:08:32.959Z,1.11
2022-11-28T04:11:07.852Z,1.14
2022-11-28T04:13:49.749Z,1.17
2022-11-28T04:16:56.057Z,1.17
2022-11-28T04:19:29.539Z,1.14
2022-11-28T04:22:04.362Z,1.14
2022-11-28T04:24:35.234Z,1.14
2022-11-28T04:27:06.615Z,1.13
2022-11-28T04:29:45.684Z,1.15
2022-11-28T04:32:14.704Z,1.14
2022-11-28T04:34:44.588Z,1.16
2022-11-28T04:37:14.911Z,1.16
2022-11-28T04:39:45.272Z,1.18
2022-11-28T04:42:19.369Z,1.17
2022-11-28T04:44:49.837Z,1.20
2022-11-28T04:47:17.944Z,1.26
2022-11-28T04:49:45.992Z,1.31
2022-11-28T04:52:53.414Z,1.35
2022-11-28T04:55:35.503Z,1.35
2022-11-28T04:58:23.036Z,1.38
2022-11-28T05:00:53.093Z,1.39
2022-11-28T05:03:21.250Z,1.41
2022-11-28T05:05:51.444Z,1.44
2022-11-28T05:08:19.731Z,1.47
2022-11-28T05:10:47.475Z,1.52
2022-11-28T05:13:15.451Z,1.56
2022-11-28T05:15:43.250Z,1.60
2022-11-28T05:18:11.113Z,1.62
2022-11-28T05:20:39.118Z,1.64
2022-11-28T05:23:06.943Z,1.65
2022-11-28T05:25:34.726Z,1.67
2022-11-28T05:28:02.366Z,1.69
2022-11-28T05:30:30.001Z,1.69
2022-11-28T05:32:59.306Z,1.71
2022-11-28T05:35:27.653Z,1.73
2022-11-28T05:37:55.404Z,1.75
2022-11-28T05:40:23.156Z,1.75
2022-11-28T05:42:50.829Z,1.77
2022-11-28T05:45:18.417Z,1.79
2022-11-28T05:47:46.068Z,1.81
2022-11-28T05:50:13.718Z,1.82
2022-11-28T05:52:41.318Z,1.85
2022-11-28T05:55:09.295Z,1.88
2022-11-28T05:57:36.968Z,1.91
2022-11-28T06:00:05.212Z,1.92
2022-11-28T06:02:39.333Z,1.94
2022-11-28T06:05:27.366Z,1.95
2022-11-28T06:07:55.070Z,1.96
2022-11-28T06:10:22.851Z,1.99
2022-11-28T06:12:50.489Z,2.01
2022-11-28T06:15:18.203Z,2.04
2022-11-28T06:17:45.817Z,2.07
2022-11-28T06:20:13.625Z,2.08
2022-11-28T06:22:41.235Z,2.09
2022-11-28T06:25:08.911Z,2.10
2022-11-28T06:27:36.531Z,2.09
2022-11-28T06:30:07.113Z,2.08
2022-11-28T06:32:35.799Z,2.08
2022-11-28T06:35:03.620Z,2.07
2022-11-28T06:37:31.242Z,2.07
2022-11-28T06:39:59.229Z,2.08
2022-11-28T06:42:26.857Z,2.09
2022-11-28T06:44:54.441Z,2.10
2022-11-28T06:47:22.269Z,2.11
2022-11-28T06:49:49.879Z,2.12
2022-11-28T06:52:17.522Z,2.13
2022-11-28T06:54:45.230Z,2.14
2022-11-28T06:57:13.024Z,2.16
2022-11-28T06:59:40.894Z,2.17
2022-11-28T07:02:10.987Z,2.18
2022-11-28T07:04:38.682Z,2.18
2022-11-28T07:07:06.388Z,2.20
2022-11-28T07:09:34.013Z,2.21
2022-11-28T07:12:01.810Z,2.22
2022-11-28T07:14:32.971Z,2.26
2022-11-28T07:17:01.013Z,2.27
2022-11-28T07:19:28.700Z,2.30
2022-11-28T07:21:56.310Z,2.32
2022-11-28T07:24:24.180Z,2.33
2022-11-28T07:26:51.824Z,2.35
2022-11-28T07:29:19.553Z,2.37
2022-11-28T07:31:47.252Z,2.38
2022-11-28T07:34:14.959Z,2.40
2022-11-28T07:36:42.821Z,2.42
2022-11-28T07:39:13.955Z,2.43
2022-11-28T07:41:41.559Z,2.44
2022-11-28T07:44:09.792Z,2.46
2022-11-28T07:46:38.686Z,2.46
2022-11-28T07:49:06.409Z,2.46
2022-11-28T07:51:34.428Z,2.48
2022-11-28T07:54:04.675Z,2.49
2022-11-28T07:57:04.601Z,2.50
2022-11-28T07:59:22.798Z,2.50
2022-11-28T08:01:50.683Z,2.50
2022-11-28T08:04:19.329Z,2.51
2022-11-28T08:06:47.053Z,2.53
2022-11-28T08:09:14.817Z,2.55
2022-11-28T08:11:43.024Z,2.55
2022-11-28T08:14:10.976Z,2.55
2022-11-28T08:16:41.281Z,2.56
2022-11-28T08:19:09.032Z,2.57
2022-11-28T08:21:37.536Z,2.57
2022-11-28T08:24:06.186Z,2.58
2022-11-28T08:26:34.380Z,2.59
2022-11-28T08:29:02.682Z,2.60
2022-11-28T08:31:32.859Z,2.61
2022-11-28T08:34:02.120Z,2.61
2022-11-28T08:36:29.826Z,2.62
2022-11-28T08:41:47.672Z,2.65
2022-11-28T08:44:16.100Z,2.68
2022-11-28T08:46:43.952Z,2.71
2022-11-28T08:49:11.638Z,2.73
2022-11-28T08:51:39.236Z,2.75
2022-11-28T08:54:06.899Z,2.77
2022-11-28T08:56:34.660Z,2.79
2022-11-28T08:59:02.407Z,2.80
2022-11-28T09:01:30.220Z,2.83
2022-11-28T09:03:58.823Z,2.85
2022-11-28T09:06:26.542Z,2.85
2022-11-28T09:08:54.137Z,2.88
2022-11-28T09:11:22.910Z,2.91
2022-11-28T09:13:51.087Z,2.92
2022-11-28T09:16:18.851Z,2.93
2022-11-28T09:18:46.870Z,2.95
2022-11-28T09:21:15.466Z,2.96
2022-11-28T09:23:44.691Z,2.99
2022-11-28T09:26:18.065Z,3.02
2022-11-28T09:28:45.821Z,3.04
2022-11-28T09:31:15.123Z,3.05
2022-11-28T09:33:43.680Z,3.07
2022-11-28T09:36:17.337Z,3.07
2022-11-28T09:38:45.421Z,3.09
2022-11-28T09:41:25.043Z,3.10
2022-11-28T09:43:55.234Z,3.07
2022-11-28T09:46:33.086Z,3.03
2022-11-28T09:49:04.967Z,3.04
2022-11-28T09:51:47.593Z,3.05
2022-11-28T09:54:25.358Z,3.05
2022-11-28T09:56:53.088Z,3.07
2022-11-28T09:59:28.516Z,3.09
2022-11-28T10:02:34.828Z,3.11
2022-11-28T10:05:36.433Z,3.09
2022-11-28T10:08:22.424Z,3.08
2022-11-28T10:11:24.512Z,3.10
2022-11-28T10:14:09.838Z,3.13
2022-11-28T10:17:02.676Z,3.15
2022-11-28T10:19:57.302Z,3.17
2022-11-28T10:22:40.793Z,3.18
2022-11-28T10:25:29.482Z,3.19
2022-11-28T10:27:57.862Z,3.21
2022-11-28T10:30:34.216Z,3.26
2022-11-28T10:33:01.929Z,3.31
2022-11-28T10:35:44.119Z,3.36
2022-11-28T10:38:14.696Z,3.41
2022-11-28T10:40:50.015Z,3.45
2022-11-28T10:43:23.820Z,3.49
2022-11-28T10:46:02.885Z,3.55
2022-11-28T10:48:48.427Z,3.57
2022-11-28T10:51:24.275Z,3.57
2022-11-28T10:54:10.512Z,3.58
2022-11-28T10:56:47.728Z,3.59
2022-11-28T10:59:44.339Z,3.58
2022-11-28T11:02:40.450Z,3.56
2022-11-28T11:05:14.643Z,3.51
2022-11-28T11:07:57.689Z,3.47
2022-11-28T11:10:33.788Z,3.44
2022-11-28T11:13:14.477Z,3.43
2022-11-28T11:15:42.287Z,3.41
2022-11-28T11:18:25.862Z,3.38
2022-11-28T11:21:17.998Z,3.36
2022-11-28T11:23:46.636Z,3.33
2022-11-28T11:26:23.791Z,3.34
2022-11-28T11:28:52.265Z,3.33
2022-11-28T11:31:23.687Z,3.30
2022-11-28T11:34:16.015Z,3.30
2022-11-28T11:36:43.800Z,3.28
2022-11-28T11:39:23.468Z,3.28
2022-11-28T11:42:13.771Z,3.27
2022-11-28T11:44:45.349Z,3.23
2022-11-28T11:47:13.115Z,3.22
2022-11-28T11:49:44.106Z,3.20
2022-11-28T11:52:12.907Z,3.20
2022-11-28T11:54:54.835Z,3.19
2022-11-28T11:57:33.120Z,3.20
2022-11-28T12:00:22.928Z,3.20
2022-11-28T12:03:17.478Z,3.16
2022-11-28T12:09:23.330Z,3.10
2022-11-28T12:11:55.208Z,3.08
2022-11-28T12:14:32.753Z,3.09
2022-11-28T12:17:48.793Z,3.12
2022-11-28T12:20:48.962Z,3.08
2022-11-28T12:23:39.358Z,3.03
2022-11-28T12:26:37.901Z,3.01
2022-11-28T12:29:22.259Z,3.00
2022-11-28T12:31:59.909Z,3.01
2022-11-28T12:34:52.444Z,3.03
2022-11-28T12:37:32.971Z,3.05
2022-11-28T12:40:10.204Z,3.08
2022-11-28T12:42:50.396Z,3.09
2022-11-28T12:45:35.041Z,3.09
2022-11-28T12:48:23.885Z,3.12
2022-11-28T12:51:16.786Z,3.11
2022-11-28T12:53:59.680Z,3.11
2022-11-28T12:56:51.580Z,3.13
2022-11-28T12:59:52.729Z,3.13
2022-11-28T13:02:23.260Z,3.13
2022-11-28T13:05:10.605Z,3.15
2022-11-28T13:07:49.022Z,3.14
2022-11-28T13:10:33.486Z,3.13
2022-11-28T13:13:05.808Z,3.13
2022-11-28T13:15:47.199Z,3.13
2022-11-28T13:18:50.585Z,3.14
2022-11-28T13:21:39.936Z,3.09
2022-11-28T13:24:22.395Z,3.07
2022-11-28T13:27:09.500Z,3.05
2022-11-28T13:29:45.062Z,3.03
2022-11-28T13:32:21.316Z,3.03
2022-11-28T13:34:49.474Z,3.01
2022-11-28T13:41:00.498Z,2.97
2022-11-28T13:43:52.511Z,2.94
2022-11-28T13:46:20.476Z,2.92
2022-11-28T13:51:40.937Z,2.91
2022-11-28T13:54:17.979Z,2.92
2022-11-28T13:56:50.592Z,2.92
2022-11-28T13:59:21.135Z,2.92
2022-11-28T14:01:56.297Z,2.92
2022-11-28T14:04:24.818Z,2.92
2022-11-28T14:06:59.580Z,2.92
2022-11-28T14:09:47.680Z,2.91
2022-11-28T14:12:34.177Z,2.89
2022-11-28T14:15:07.556Z,2.87
2022-11-28T14:17:52.294Z,2.87
2022-11-28T14:20:31.343Z,2.85
2022-11-28T14:23:13.728Z,2.84
2022-11-28T14:25:44.597Z,2.83
2022-11-28T14:28:36.727Z,2.84
2022-11-28T14:31:10.998Z,2.82
2022-11-28T14:33:44.060Z,2.81
2022-11-28T14:36:35.948Z,2.80
2022-11-28T14:39:07.334Z,2.79
2022-11-28T14:42:04.924Z,2.79
2022-11-28T14:44:54.702Z,2.77
2022-11-28T14:47:24.246Z,2.77
2022-11-28T14:50:04.365Z,2.77
2022-11-28T14:52:41.772Z,2.79
2022-11-28T14:55:10.936Z,2.79
2022-11-28T14:58:00.145Z,2.80
2022-11-28T15:00:55.295Z,2.80
2022-11-28T15:03:50.693Z,2.78
2022-11-28T15:06:21.909Z,2.76
2022-11-28T15:09:34.975Z,2.76
2022-11-28T15:12:33.401Z,2.75
2022-11-28T15:15:01.534Z,2.73
2022-11-28T15:17:33.431Z,2.73
2022-11-28T15:20:09.253Z,2.74
2022-11-28T15:22:42.497Z,2.75
2022-11-28T15:25:27.556Z,2.75
2022-11-28T15:27:55.567Z,2.75
2022-11-28T15:30:26.607Z,2.75
2022-11-28T15:32:59.613Z,2.75
2022-11-28T15:35:27.885Z,2.75
2022-11-28T15:37:58.069Z,2.76
2022-11-28T15:40:29.323Z,2.76
2022-11-28T15:42:57.242Z,2.75
2022-11-28T15:45:27.746Z,2.75
2022-11-28T15:47:56.680Z,2.75
2022-11-28T15:50:33.896Z,2.75
2022-11-28T15:53:18.205Z,2.73
2022-11-28T15:55:46.735Z,2.72
2022-11-28T15:58:30.914Z,2.72
2022-11-28T16:01:09.871Z,2.70
2022-11-28T16:03:59.863Z,2.70
2022-11-28T16:06:34.288Z,2.69
2022-11-28T16:09:25.934Z,2.68
2022-11-28T16:11:54.166Z,2.68
2022-11-28T16:14:26.892Z,2.68
2022-11-28T16:16:55.624Z,2.69
2022-11-28T16:19:26.403Z,2.69
2022-11-28T16:21:59.760Z,2.70
2022-11-28T16:24:35.454Z,2.69
2022-11-28T16:27:06.299Z,2.67
2022-11-28T16:29:36.122Z,2.67
2022-11-28T16:32:29.398Z,2.67
2022-11-28T16:35:00.285Z,2.63
2022-11-28T16:37:30.029Z,2.62
2022-11-28T16:40:04.809Z,2.64
2022-11-28T16:42:34.194Z,2.63
2022-11-28T16:45:14.675Z,2.63
2022-11-28T16:47:44.209Z,2.63
2022-11-28T16:50:22.739Z,2.63
2022-11-28T16:52:55.533Z,2.63
2022-11-28T16:55:33.313Z,2.63
2022-11-28T16:58:07.571Z,2.62
2022-11-28T17:00:36.257Z,2.62
2022-11-28T17:03:07.184Z,2.61
2022-11-28T17:05:37.337Z,2.59
2022-11-28T17:08:05.045Z,2.58
2022-11-28T17:10:32.742Z,2.58
2022-11-28T17:13:00.408Z,2.59
2022-11-28T17:15:28.051Z,2.60
2022-11-28T17:17:57.230Z,2.58
2022-11-28T17:20:24.896Z,2.57
2022-11-28T17:22:56.368Z,2.58
2022-11-28T17:25:24.073Z,2.57
2022-11-28T17:27:53.430Z,2.57
2022-11-28T17:30:21.248Z,2.56
2022-11-28T17:32:49.018Z,2.57
2022-11-28T17:35:20.051Z,2.57
2022-11-28T17:37:47.866Z,2.57
2022-11-28T17:40:34.231Z,2.56
2022-11-28T17:43:02.466Z,2.54
2022-11-28T17:45:32.493Z,2.54
2022-11-28T17:48:00.216Z,2.53
2022-11-28T17:50:28.864Z,2.52
2022-11-28T17:52:56.590Z,2.52
2022-11-28T17:55:24.371Z,2.52
2022-11-28T17:57:54.078Z,2.51
2022-11-28T18:00:21.952Z,2.50
2022-11-28T18:02:49.811Z,2.50
2022-11-28T18:05:17.976Z,2.50
2022-11-28T18:07:45.690Z,2.51
2022-11-28T18:10:13.447Z,2.50
2022-11-28T18:12:41.621Z,2.50
2022-11-28T18:15:10.591Z,2.49
2022-11-28T18:17:39.092Z,2.49
2022-11-28T18:20:13.880Z,2.48
2022-11-28T18:22:41.646Z,2.48
2022-11-28T18:25:09.549Z,2.47
2022-11-28T18:27:37.369Z,2.45
2022-11-28T18:30:06.072Z,2.46
2022-11-28T18:32:33.859Z,2.45
2022-11-28T18:35:02.279Z,2.44
2022-11-28T18:37:30.242Z,2.45
2022-11-28T18:39:58.183Z,2.44
2022-11-28T18:42:26.034Z,2.44
2022-11-28T18:44:53.694Z,2.42
2022-11-28T18:47:21.433Z,2.43
2022-11-28T18:49:49.075Z,2.42
2022-11-28T18:52:17.158Z,2.41
2022-11-28T18:54:45.976Z,2.42
2022-11-28T18:57:14.638Z,2.43
2022-11-28T18:59:47.804Z,2.41
2022-11-28T19:02:19.290Z,2.41
2022-11-28T19:04:47.270Z,2.40
2022-11-28T19:07:14.944Z,2.40
2022-11-28T19:09:45.102Z,2.41
2022-11-28T19:12:13.526Z,2.39
2022-11-28T19:14:41.217Z,2.40
2022-11-28T19:17:08.960Z,2.40
2022-11-28T19:19:44.263Z,2.39
2022-11-28T19:22:12.183Z,2.39
2022-11-28T19:24:39.942Z,2.39
2022-11-28T19:27:13.825Z,2.37
2022-11-28T19:29:42.956Z,2.37
2022-11-28T19:32:11.156Z,2.37
2022-11-28T19:34:38.872Z,2.36
2022-11-28T19:37:06.520Z,2.36
2022-11-28T19:39:34.385Z,2.36
2022-11-28T19:42:02.395Z,2.35
2022-11-28T19:44:30.589Z,2.34
2022-11-28T19:46:59.000Z,2.33
2022-11-28T19:49:26.837Z,2.31
2022-11-28T19:51:54.735Z,2.31
2022-11-28T19:54:23.329Z,2.30
2022-11-28T19:56:53.884Z,2.30
2022-11-28T19:59:21.567Z,2.29
2022-11-28T20:01:50.184Z,2.28
2022-11-28T20:04:19.292Z,2.28
2022-11-28T20:06:46.915Z,2.29
2022-11-28T20:09:14.706Z,2.28
2022-11-28T20:11:43.655Z,2.26
2022-11-28T20:14:14.456Z,2.25
2022-11-28T20:16:42.605Z,2.24
2022-11-28T20:19:12.443Z,2.23
2022-11-28T20:21:40.328Z,2.21
2022-11-28T20:24:10.224Z,2.20
2022-11-28T20:26:40.765Z,2.18
2022-11-28T20:29:13.223Z,2.16
2022-11-28T20:31:46.373Z,2.14
2022-11-28T20:34:17.428Z,2.13
2022-11-28T20:36:46.278Z,2.11
2022-11-28T20:39:14.060Z,2.10
2022-11-28T20:41:41.672Z,2.09
2022-11-28T20:44:10.171Z,2.08
2022-11-28T20:46:38.215Z,2.07
2022-11-28T20:49:07.150Z,2.05
2022-11-28T20:51:35.634Z,2.04
2022-11-28T20:54:05.174Z,2.02
2022-11-28T20:57:04.963Z,2.01
2022-11-28T20:59:26.923Z,1.94
2022-11-28T21:01:54.672Z,1.91
2022-11-28T21:04:22.409Z,1.89
2022-11-28T21:06:50.135Z,1.87
2022-11-28T21:09:20.067Z,1.85
2022-11-28T21:11:58.165Z,1.82
2022-11-28T21:14:28.456Z,1.78
2022-11-28T21:16:57.363Z,1.75
2022-11-28T21:19:25.004Z,1.73
2022-11-28T21:21:52.814Z,1.70
2022-11-28T21:24:20.534Z,1.68
2022-11-28T21:26:53.047Z,1.64
2022-11-28T21:29:23.037Z,1.62
2022-11-28T21:31:50.830Z,1.57
2022-11-28T21:34:19.426Z,1.54
2022-11-28T21:36:47.643Z,1.50
2022-11-28T21:39:18.855Z,1.48
2022-11-28T21:41:46.729Z,1.45
2022-11-28T21:44:14.427Z,1.43
2022-11-28T21:46:42.190Z,1.41
2022-11-28T21:49:10.016Z,1.39
2022-11-28T21:51:40.537Z,1.37
2022-11-28T21:54:12.641Z,1.35
2022-11-28T21:56:41.051Z,1.32
2022-11-28T21:59:08.809Z,1.30
2022-11-28T22:01:36.500Z,1.28
2022-11-28T22:04:05.446Z,1.25
2022-11-28T22:06:33.793Z,1.22
2022-11-28T22:09:08.626Z,1.21
2022-11-28T22:11:38.438Z,1.18
2022-11-28T22:14:06.469Z,1.17
2022-11-28T22:16:34.731Z,1.15
2022-11-28T22:19:03.989Z,1.14
2022-11-28T22:24:19.481Z,1.08
2022-11-28T22:26:47.540Z,1.06
2022-11-28T22:29:15.557Z,1.03
2022-11-28T22:31:43.509Z,1.02
2022-11-28T22:34:11.840Z,1.01
2022-11-28T22:36:40.163Z,0.99
2022-11-28T22:39:10.858Z,0.99
2022-11-28T22:41:38.894Z,1.00
2022-11-28T22:44:06.539Z,1.00
2022-11-28T22:46:34.724Z,1.01
2022-11-28T22:49:03.546Z,1.00
2022-11-28T22:51:31.479Z,0.99
2022-11-28T22:54:01.070Z,0.99
2022-11-28T22:56:31.804Z,0.99
2022-11-28T22:59:00.428Z,1.00
2022-11-28T23:01:30.788Z,1.00
2022-11-28T23:03:59.316Z,1.00
2022-11-28T23:06:30.280Z,1.01
2022-11-28T23:08:59.139Z,1.02
2022-11-28T23:11:30.910Z,1.03
2022-11-28T23:14:00.186Z,1.03
2022-11-28T23:16:30.718Z,1.05
2022-11-28T23:19:00.981Z,1.05
2022-11-28T23:21:31.204Z,1.04
2022-11-28T23:23:59.512Z,1.03
2022-11-28T23:26:30.132Z,1.01
2022-11-28T23:29:00.647Z,1.01
2022-11-28T23:31:30.960Z,1.01
2022-11-28T23:33:59.312Z,1.01
2022-11-28T23:36:30.277Z,1.01
2022-11-28T23:39:01.808Z,1.00
2022-11-28T23:41:30.108Z,0.99
2022-11-28T23:43:58.672Z,0.98
2022-11-28T23:46:27.167Z,0.98
2022-11-28T23:48:54.928Z,0.97
2022-11-28T23:51:24.936Z,0.96
2022-11-28T23:53:53.140Z,0.93
2022-11-28T23:56:23.260Z,0.92
2022-11-28T23:58:51.441Z,0.92
